sensor_id;sensor_type;location;lat;lon;timestamp;P1;durP1;ratioP1;P2;durP2;ratioP2
33858;SDS011;20156;47.486;12.074;2024-02-14T00:02:15;4.73;;;3.53;;
33858;SDS011;20156;47.486;12.074;2024-02-14T00:04:41;5.13;;;3.37;;
33858;SDS011;20156;47.486;12.074;2024-02-14T00:07:06;5.27;;;3.33;;
33858;SDS011;20156;47.486;12.074;2024-02-14T00:09:31;3.10;;;2.63;;
33858;SDS011;20156;47.486;12.074;2024-02-14T00:11:56;4.20;;;3.20;;
33858;SDS011;20156;47.486;12.074;2024-02-14T00:14:22;3.17;;;2.80;;
33858;SDS011;20156;47.486;12.074;2024-02-14T00:16:47;3.83;;;2.77;;
33858;SDS011;20156;47.486;12.074;2024-02-14T00:19:12;4.27;;;3.43;;
33858;SDS011;20156;47.486;12.074;2024-02-14T00:21:38;4.07;;;3.10;;
33858;SDS011;20156;47.486;12.074;2024-02-14T00:24:04;5.23;;;3.90;;
33858;SDS011;20156;47.486;12.074;2024-02-14T00:26:30;5.13;;;4.13;;
33858;SDS011;20156;47.486;12.074;2024-02-14T00:28:55;5.47;;;3.73;;
33858;SDS011;20156;47.486;12.074;2024-02-14T00:31:20;4.10;;;3.27;;
33858;SDS011;20156;47.486;12.074;2024-02-14T00:33:46;6.93;;;5.03;;
33858;SDS011;20156;47.486;12.074;2024-02-14T00:36:11;8.63;;;5.93;;
33858;SDS011;20156;47.486;12.074;2024-02-14T00:38:36;6.83;;;4.57;;
33858;SDS011;20156;47.486;12.074;2024-02-14T00:41:01;6.77;;;5.07;;
33858;SDS011;20156;47.486;12.074;2024-02-14T00:43:27;7.60;;;4.80;;
33858;SDS011;20156;47.486;12.074;2024-02-14T00:45:53;6.27;;;3.97;;
33858;SDS011;20156;47.486;12.074;2024-02-14T00:48:18;5.17;;;4.27;;
33858;SDS011;20156;47.486;12.074;2024-02-14T00:50:43;4.33;;;3.63;;
33858;SDS011;20156;47.486;12.074;2024-02-14T00:53:08;4.90;;;3.90;;
33858;SDS011;20156;47.486;12.074;2024-02-14T00:55:34;4.10;;;3.37;;
33858;SDS011;20156;47.486;12.074;2024-02-14T00:57:59;3.90;;;3.37;;
33858;SDS011;20156;47.486;12.074;2024-02-14T01:00:24;7.37;;;3.47;;
33858;SDS011;20156;47.486;12.074;2024-02-14T01:02:50;5.63;;;3.73;;
33858;SDS011;20156;47.486;12.074;2024-02-14T01:05:16;6.13;;;3.57;;
33858;SDS011;20156;47.486;12.074;2024-02-14T01:07:42;5.17;;;4.00;;
33858;SDS011;20156;47.486;12.074;2024-02-14T01:10:07;14.17;;;7.37;;
33858;SDS011;20156;47.486;12.074;2024-02-14T01:12:32;27.63;;;12.97;;
33858;SDS011;20156;47.486;12.074;2024-02-14T01:14:58;11.70;;;6.37;;
33858;SDS011;20156;47.486;12.074;2024-02-14T01:17:23;12.27;;;7.20;;
33858;SDS011;20156;47.486;12.074;2024-02-14T01:19:49;7.30;;;4.90;;
33858;SDS011;20156;47.486;12.074;2024-02-14T01:22:15;8.23;;;4.33;;
33858;SDS011;20156;47.486;12.074;2024-02-14T01:24:43;5.87;;;4.37;;
33858;SDS011;20156;47.486;12.074;2024-02-14T01:27:08;6.50;;;3.87;;
33858;SDS011;20156;47.486;12.074;2024-02-14T01:29:34;4.77;;;3.60;;
33858;SDS011;20156;47.486;12.074;2024-02-14T01:31:59;4.43;;;3.67;;
33858;SDS011;20156;47.486;12.074;2024-02-14T01:34:24;6.63;;;4.47;;
33858;SDS011;20156;47.486;12.074;2024-02-14T01:36:49;7.10;;;4.03;;
33858;SDS011;20156;47.486;12.074;2024-02-14T01:39:15;5.80;;;4.03;;
33858;SDS011;20156;47.486;12.074;2024-02-14T01:41:46;4.40;;;3.60;;
33858;SDS011;20156;47.486;12.074;2024-02-14T01:44:15;7.63;;;3.93;;
33858;SDS011;20156;47.486;12.074;2024-02-14T01:46:41;4.03;;;3.37;;
33858;SDS011;20156;47.486;12.074;2024-02-14T01:49:06;3.87;;;3.23;;
33858;SDS011;20156;47.486;12.074;2024-02-14T01:51:32;4.57;;;3.30;;
33858;SDS011;20156;47.486;12.074;2024-02-14T01:53:58;3.93;;;3.33;;
33858;SDS011;20156;47.486;12.074;2024-02-14T01:56:24;7.17;;;3.53;;
33858;SDS011;20156;47.486;12.074;2024-02-14T01:58:49;3.73;;;3.00;;
33858;SDS011;20156;47.486;12.074;2024-02-14T02:01:15;5.27;;;3.63;;
33858;SDS011;20156;47.486;12.074;2024-02-14T02:03:42;3.77;;;3.10;;
33858;SDS011;20156;47.486;12.074;2024-02-14T02:06:08;3.80;;;3.40;;
33858;SDS011;20156;47.486;12.074;2024-02-14T02:08:33;3.40;;;3.10;;
33858;SDS011;20156;47.486;12.074;2024-02-14T02:10:58;3.70;;;3.23;;
33858;SDS011;20156;47.486;12.074;2024-02-14T02:13:23;3.63;;;3.20;;
33858;SDS011;20156;47.486;12.074;2024-02-14T02:15:51;3.93;;;3.20;;
33858;SDS011;20156;47.486;12.074;2024-02-14T02:18:17;4.30;;;3.07;;
33858;SDS011;20156;47.486;12.074;2024-02-14T02:20:42;5.60;;;3.63;;
33858;SDS011;20156;47.486;12.074;2024-02-14T02:23:09;5.53;;;3.33;;
33858;SDS011;20156;47.486;12.074;2024-02-14T02:25:34;4.17;;;3.17;;
33858;SDS011;20156;47.486;12.074;2024-02-14T02:27:59;6.10;;;3.47;;
33858;SDS011;20156;47.486;12.074;2024-02-14T02:30:25;3.47;;;2.80;;
33858;SDS011;20156;47.486;12.074;2024-02-14T02:32:50;3.90;;;3.10;;
33858;SDS011;20156;47.486;12.074;2024-02-14T02:35:16;3.10;;;2.80;;
33858;SDS011;20156;47.486;12.074;2024-02-14T02:37:41;3.10;;;2.60;;
33858;SDS011;20156;47.486;12.074;2024-02-14T02:40:10;4.73;;;3.03;;
33858;SDS011;20156;47.486;12.074;2024-02-14T02:42:35;3.83;;;3.00;;
33858;SDS011;20156;47.486;12.074;2024-02-14T02:45:01;3.90;;;3.00;;
33858;SDS011;20156;47.486;12.074;2024-02-14T02:47:31;4.97;;;3.10;;
33858;SDS011;20156;47.486;12.074;2024-02-14T02:49:56;3.10;;;2.80;;
33858;SDS011;20156;47.486;12.074;2024-02-14T02:52:22;3.20;;;2.90;;
33858;SDS011;20156;47.486;12.074;2024-02-14T02:54:47;3.63;;;3.33;;
33858;SDS011;20156;47.486;12.074;2024-02-14T02:57:13;4.50;;;2.70;;
33858;SDS011;20156;47.486;12.074;2024-02-14T02:59:38;3.33;;;2.63;;
33858;SDS011;20156;47.486;12.074;2024-02-14T03:02:07;4.77;;;3.57;;
33858;SDS011;20156;47.486;12.074;2024-02-14T03:04:33;3.43;;;3.13;;
33858;SDS011;20156;47.486;12.074;2024-02-14T03:06:58;3.47;;;2.97;;
33858;SDS011;20156;47.486;12.074;2024-02-14T03:09:24;3.40;;;2.50;;
33858;SDS011;20156;47.486;12.074;2024-02-14T03:11:51;3.90;;;3.10;;
33858;SDS011;20156;47.486;12.074;2024-02-14T03:14:16;3.90;;;3.10;;
33858;SDS011;20156;47.486;12.074;2024-02-14T03:16:42;4.50;;;3.03;;
33858;SDS011;20156;47.486;12.074;2024-02-14T03:19:07;3.63;;;3.10;;
33858;SDS011;20156;47.486;12.074;2024-02-14T03:21:32;2.90;;;2.57;;
33858;SDS011;20156;47.486;12.074;2024-02-14T03:24:00;5.87;;;2.90;;
33858;SDS011;20156;47.486;12.074;2024-02-14T03:26:25;4.07;;;2.97;;
33858;SDS011;20156;47.486;12.074;2024-02-14T03:28:51;4.27;;;3.37;;
33858;SDS011;20156;47.486;12.074;2024-02-14T03:31:18;3.23;;;2.70;;
33858;SDS011;20156;47.486;12.074;2024-02-14T03:33:44;3.87;;;3.30;;
33858;SDS011;20156;47.486;12.074;2024-02-14T03:36:09;4.20;;;3.27;;
33858;SDS011;20156;47.486;12.074;2024-02-14T03:38:35;3.17;;;2.80;;
33858;SDS011;20156;47.486;12.074;2024-02-14T03:41:00;4.80;;;3.17;;
33858;SDS011;20156;47.486;12.074;2024-02-14T03:43:26;6.43;;;3.57;;
33858;SDS011;20156;47.486;12.074;2024-02-14T03:45:51;4.77;;;3.43;;
33858;SDS011;20156;47.486;12.074;2024-02-14T03:48:16;3.70;;;3.10;;
33858;SDS011;20156;47.486;12.074;2024-02-14T03:50:42;5.23;;;4.10;;
33858;SDS011;20156;47.486;12.074;2024-02-14T03:53:08;5.77;;;3.20;;
33858;SDS011;20156;47.486;12.074;2024-02-14T03:55:33;3.53;;;3.23;;
33858;SDS011;20156;47.486;12.074;2024-02-14T03:57:59;5.13;;;3.80;;
33858;SDS011;20156;47.486;12.074;2024-02-14T04:00:25;4.00;;;3.60;;
33858;SDS011;20156;47.486;12.074;2024-02-14T04:02:50;4.73;;;3.27;;
33858;SDS011;20156;47.486;12.074;2024-02-14T04:05:23;3.67;;;3.20;;
33858;SDS011;20156;47.486;12.074;2024-02-14T04:07:49;4.60;;;4.10;;
33858;SDS011;20156;47.486;12.074;2024-02-14T04:10:17;5.93;;;4.10;;
33858;SDS011;20156;47.486;12.074;2024-02-14T04:12:42;7.30;;;4.27;;
33858;SDS011;20156;47.486;12.074;2024-02-14T04:15:07;4.50;;;3.87;;
33858;SDS011;20156;47.486;12.074;2024-02-14T04:17:33;6.20;;;4.40;;
33858;SDS011;20156;47.486;12.074;2024-02-14T04:19:59;4.93;;;4.40;;
33858;SDS011;20156;47.486;12.074;2024-02-14T04:22:24;5.20;;;3.80;;
33858;SDS011;20156;47.486;12.074;2024-02-14T04:24:49;7.47;;;4.77;;
33858;SDS011;20156;47.486;12.074;2024-02-14T04:27:14;6.83;;;5.33;;
33858;SDS011;20156;47.486;12.074;2024-02-14T04:29:39;5.83;;;5.13;;
33858;SDS011;20156;47.486;12.074;2024-02-14T04:32:05;4.93;;;4.40;;
33858;SDS011;20156;47.486;12.074;2024-02-14T04:34:30;7.50;;;6.00;;
33858;SDS011;20156;47.486;12.074;2024-02-14T04:36:55;6.23;;;4.50;;
33858;SDS011;20156;47.486;12.074;2024-02-14T04:39:21;5.13;;;4.63;;
33858;SDS011;20156;47.486;12.074;2024-02-14T04:41:46;6.47;;;5.70;;
33858;SDS011;20156;47.486;12.074;2024-02-14T04:44:12;6.93;;;5.63;;
33858;SDS011;20156;47.486;12.074;2024-02-14T04:46:37;8.10;;;6.20;;
33858;SDS011;20156;47.486;12.074;2024-02-14T04:49:08;9.83;;;7.27;;
33858;SDS011;20156;47.486;12.074;2024-02-14T04:51:34;6.13;;;5.00;;
33858;SDS011;20156;47.486;12.074;2024-02-14T04:54:00;8.77;;;6.47;;
33858;SDS011;20156;47.486;12.074;2024-02-14T04:56:28;10.97;;;7.40;;
33858;SDS011;20156;47.486;12.074;2024-02-14T04:58:54;7.27;;;5.57;;
33858;SDS011;20156;47.486;12.074;2024-02-14T05:01:20;7.80;;;5.90;;
33858;SDS011;20156;47.486;12.074;2024-02-14T05:03:45;7.27;;;5.40;;
33858;SDS011;20156;47.486;12.074;2024-02-14T05:06:10;7.13;;;4.77;;
33858;SDS011;20156;47.486;12.074;2024-02-14T05:08:35;5.87;;;4.70;;
33858;SDS011;20156;47.486;12.074;2024-02-14T05:11:01;5.80;;;4.60;;
33858;SDS011;20156;47.486;12.074;2024-02-14T05:13:26;6.17;;;4.57;;
33858;SDS011;20156;47.486;12.074;2024-02-14T05:15:51;3.80;;;3.43;;
33858;SDS011;20156;47.486;12.074;2024-02-14T05:18:16;5.40;;;3.57;;
33858;SDS011;20156;47.486;12.074;2024-02-14T05:20:42;3.90;;;3.50;;
33858;SDS011;20156;47.486;12.074;2024-02-14T05:23:07;5.77;;;3.40;;
33858;SDS011;20156;47.486;12.074;2024-02-14T05:25:33;6.80;;;4.40;;
33858;SDS011;20156;47.486;12.074;2024-02-14T05:27:58;13.87;;;8.27;;
33858;SDS011;20156;47.486;12.074;2024-02-14T05:30:23;8.33;;;5.83;;
33858;SDS011;20156;47.486;12.074;2024-02-14T05:32:50;9.73;;;6.40;;
33858;SDS011;20156;47.486;12.074;2024-02-14T05:35:17;7.40;;;4.80;;
33858;SDS011;20156;47.486;12.074;2024-02-14T05:37:42;5.53;;;4.03;;
33858;SDS011;20156;47.486;12.074;2024-02-14T05:40:08;6.57;;;3.40;;
33858;SDS011;20156;47.486;12.074;2024-02-14T05:42:33;6.90;;;4.33;;
33858;SDS011;20156;47.486;12.074;2024-02-14T05:44:59;5.40;;;3.60;;
33858;SDS011;20156;47.486;12.074;2024-02-14T05:47:24;4.20;;;3.77;;
33858;SDS011;20156;47.486;12.074;2024-02-14T05:49:50;5.20;;;4.03;;
33858;SDS011;20156;47.486;12.074;2024-02-14T05:52:15;5.63;;;3.80;;
33858;SDS011;20156;47.486;12.074;2024-02-14T05:54:41;5.30;;;4.00;;
33858;SDS011;20156;47.486;12.074;2024-02-14T05:57:06;5.43;;;3.47;;
33858;SDS011;20156;47.486;12.074;2024-02-14T05:59:32;4.90;;;3.73;;
33858;SDS011;20156;47.486;12.074;2024-02-14T06:01:57;4.93;;;3.03;;
33858;SDS011;20156;47.486;12.074;2024-02-14T06:04:22;5.53;;;3.93;;
33858;SDS011;20156;47.486;12.074;2024-02-14T06:06:48;4.27;;;3.27;;
33858;SDS011;20156;47.486;12.074;2024-02-14T06:09:13;4.17;;;3.60;;
33858;SDS011;20156;47.486;12.074;2024-02-14T06:11:38;5.47;;;3.50;;
33858;SDS011;20156;47.486;12.074;2024-02-14T06:14:07;3.77;;;3.47;;
33858;SDS011;20156;47.486;12.074;2024-02-14T06:16:33;3.80;;;3.40;;
33858;SDS011;20156;47.486;12.074;2024-02-14T06:18:59;4.33;;;3.53;;
33858;SDS011;20156;47.486;12.074;2024-02-14T06:21:24;4.10;;;3.23;;
33858;SDS011;20156;47.486;12.074;2024-02-14T06:23:50;5.20;;;3.80;;
33858;SDS011;20156;47.486;12.074;2024-02-14T06:26:16;6.23;;;4.70;;
33858;SDS011;20156;47.486;12.074;2024-02-14T06:28:42;4.37;;;3.47;;
33858;SDS011;20156;47.486;12.074;2024-02-14T06:31:08;7.83;;;4.20;;
33858;SDS011;20156;47.486;12.074;2024-02-14T06:33:33;7.20;;;4.43;;
33858;SDS011;20156;47.486;12.074;2024-02-14T06:35:59;7.37;;;5.37;;
33858;SDS011;20156;47.486;12.074;2024-02-14T06:38:24;8.53;;;5.00;;
33858;SDS011;20156;47.486;12.074;2024-02-14T06:40:49;6.83;;;5.10;;
33858;SDS011;20156;47.486;12.074;2024-02-14T06:43:14;6.70;;;5.60;;
33858;SDS011;20156;47.486;12.074;2024-02-14T06:45:39;8.73;;;5.50;;
33858;SDS011;20156;47.486;12.074;2024-02-14T06:48:05;5.60;;;4.97;;
33858;SDS011;20156;47.486;12.074;2024-02-14T06:50:30;8.00;;;5.83;;
33858;SDS011;20156;47.486;12.074;2024-02-14T06:52:56;7.13;;;4.97;;
33858;SDS011;20156;47.486;12.074;2024-02-14T06:55:25;7.57;;;4.97;;
33858;SDS011;20156;47.486;12.074;2024-02-14T06:57:51;6.20;;;4.77;;
33858;SDS011;20156;47.486;12.074;2024-02-14T07:00:16;5.73;;;4.47;;
33858;SDS011;20156;47.486;12.074;2024-02-14T07:02:42;6.57;;;4.87;;
33858;SDS011;20156;47.486;12.074;2024-02-14T07:05:08;4.87;;;4.30;;
33858;SDS011;20156;47.486;12.074;2024-02-14T07:07:37;6.60;;;4.60;;
33858;SDS011;20156;47.486;12.074;2024-02-14T07:10:02;8.63;;;5.13;;
33858;SDS011;20156;47.486;12.074;2024-02-14T07:12:28;11.13;;;7.93;;
33858;SDS011;20156;47.486;12.074;2024-02-14T07:14:55;11.53;;;7.60;;
33858;SDS011;20156;47.486;12.074;2024-02-14T07:17:20;7.97;;;6.07;;
33858;SDS011;20156;47.486;12.074;2024-02-14T07:19:45;10.33;;;6.13;;
33858;SDS011;20156;47.486;12.074;2024-02-14T07:22:14;6.37;;;5.33;;
33858;SDS011;20156;47.486;12.074;2024-02-14T07:24:40;11.10;;;6.13;;
33858;SDS011;20156;47.486;12.074;2024-02-14T07:27:06;9.13;;;5.80;;
33858;SDS011;20156;47.486;12.074;2024-02-14T07:29:31;8.97;;;6.20;;
33858;SDS011;20156;47.486;12.074;2024-02-14T07:31:56;10.37;;;6.23;;
33858;SDS011;20156;47.486;12.074;2024-02-14T07:34:23;9.93;;;5.50;;
33858;SDS011;20156;47.486;12.074;2024-02-14T07:36:49;6.47;;;5.40;;
33858;SDS011;20156;47.486;12.074;2024-02-14T07:39:14;7.23;;;5.07;;
33858;SDS011;20156;47.486;12.074;2024-02-14T07:41:39;8.90;;;5.67;;
33858;SDS011;20156;47.486;12.074;2024-02-14T07:44:04;7.60;;;5.40;;
33858;SDS011;20156;47.486;12.074;2024-02-14T07:46:30;7.80;;;5.60;;
33858;SDS011;20156;47.486;12.074;2024-02-14T07:48:56;7.20;;;5.80;;
33858;SDS011;20156;47.486;12.074;2024-02-14T07:51:22;8.77;;;6.40;;
33858;SDS011;20156;47.486;12.074;2024-02-14T07:53:48;8.73;;;6.70;;
33858;SDS011;20156;47.486;12.074;2024-02-14T07:56:15;8.67;;;6.17;;
33858;SDS011;20156;47.486;12.074;2024-02-14T07:58:43;8.27;;;5.63;;
33858;SDS011;20156;47.486;12.074;2024-02-14T08:01:08;9.93;;;6.30;;
33858;SDS011;20156;47.486;12.074;2024-02-14T08:03:33;12.03;;;7.37;;
33858;SDS011;20156;47.486;12.074;2024-02-14T08:05:58;10.73;;;6.17;;
33858;SDS011;20156;47.486;12.074;2024-02-14T08:08:25;9.90;;;5.70;;
33858;SDS011;20156;47.486;12.074;2024-02-14T08:10:52;7.03;;;5.30;;
33858;SDS011;20156;47.486;12.074;2024-02-14T08:13:17;11.37;;;5.90;;
33858;SDS011;20156;47.486;12.074;2024-02-14T08:15:43;7.30;;;5.00;;
33858;SDS011;20156;47.486;12.074;2024-02-14T08:18:08;6.03;;;5.43;;
33858;SDS011;20156;47.486;12.074;2024-02-14T08:20:33;7.40;;;5.17;;
33858;SDS011;20156;47.486;12.074;2024-02-14T08:22:58;7.40;;;5.80;;
33858;SDS011;20156;47.486;12.074;2024-02-14T08:25:24;6.57;;;4.63;;
33858;SDS011;20156;47.486;12.074;2024-02-14T08:27:49;7.93;;;5.30;;
33858;SDS011;20156;47.486;12.074;2024-02-14T08:30:14;8.57;;;5.53;;
33858;SDS011;20156;47.486;12.074;2024-02-14T08:32:40;5.93;;;5.33;;
33858;SDS011;20156;47.486;12.074;2024-02-14T08:35:05;9.83;;;5.67;;
33858;SDS011;20156;47.486;12.074;2024-02-14T08:37:32;7.67;;;5.37;;
33858;SDS011;20156;47.486;12.074;2024-02-14T08:39:58;10.47;;;6.00;;
33858;SDS011;20156;47.486;12.074;2024-02-14T08:42:23;9.37;;;5.60;;
33858;SDS011;20156;47.486;12.074;2024-02-14T08:44:48;9.60;;;5.87;;
33858;SDS011;20156;47.486;12.074;2024-02-14T08:47:13;6.03;;;5.43;;
33858;SDS011;20156;47.486;12.074;2024-02-14T08:49:42;7.67;;;5.50;;
33858;SDS011;20156;47.486;12.074;2024-02-14T08:52:07;8.90;;;6.17;;
33858;SDS011;20156;47.486;12.074;2024-02-14T08:54:33;9.70;;;5.37;;
33858;SDS011;20156;47.486;12.074;2024-02-14T08:56:58;6.23;;;5.00;;
33858;SDS011;20156;47.486;12.074;2024-02-14T08:59:24;7.77;;;6.10;;
33858;SDS011;20156;47.486;12.074;2024-02-14T09:01:49;8.33;;;5.77;;
33858;SDS011;20156;47.486;12.074;2024-02-14T09:04:14;10.27;;;6.63;;
33858;SDS011;20156;47.486;12.074;2024-02-14T09:06:40;11.67;;;6.37;;
33858;SDS011;20156;47.486;12.074;2024-02-14T09:09:06;15.87;;;6.53;;
33858;SDS011;20156;47.486;12.074;2024-02-14T09:11:31;9.40;;;6.53;;
33858;SDS011;20156;47.486;12.074;2024-02-14T09:13:57;11.73;;;7.00;;
33858;SDS011;20156;47.486;12.074;2024-02-14T09:16:27;7.30;;;5.77;;
33858;SDS011;20156;47.486;12.074;2024-02-14T09:18:53;7.10;;;5.20;;
33858;SDS011;20156;47.486;12.074;2024-02-14T09:21:18;7.57;;;5.80;;
33858;SDS011;20156;47.486;12.074;2024-02-14T09:23:46;9.80;;;5.87;;
33858;SDS011;20156;47.486;12.074;2024-02-14T09:26:11;8.47;;;6.50;;
33858;SDS011;20156;47.486;12.074;2024-02-14T09:28:39;14.50;;;7.10;;
33858;SDS011;20156;47.486;12.074;2024-02-14T09:31:04;8.33;;;6.10;;
33858;SDS011;20156;47.486;12.074;2024-02-14T09:33:30;10.20;;;6.70;;
33858;SDS011;20156;47.486;12.074;2024-02-14T09:35:55;9.83;;;5.93;;
33858;SDS011;20156;47.486;12.074;2024-02-14T09:38:21;10.60;;;7.13;;
33858;SDS011;20156;47.486;12.074;2024-02-14T09:40:46;10.70;;;6.20;;
33858;SDS011;20156;47.486;12.074;2024-02-14T09:43:24;8.57;;;5.93;;
33858;SDS011;20156;47.486;12.074;2024-02-14T09:45:53;7.77;;;5.90;;
33858;SDS011;20156;47.486;12.074;2024-02-14T09:48:19;8.33;;;6.00;;
33858;SDS011;20156;47.486;12.074;2024-02-14T09:50:44;9.20;;;6.07;;
33858;SDS011;20156;47.486;12.074;2024-02-14T09:53:10;10.20;;;6.17;;
33858;SDS011;20156;47.486;12.074;2024-02-14T09:55:37;9.03;;;5.97;;
33858;SDS011;20156;47.486;12.074;2024-02-14T09:58:03;11.00;;;6.27;;
33858;SDS011;20156;47.486;12.074;2024-02-14T10:00:31;12.07;;;5.83;;
33858;SDS011;20156;47.486;12.074;2024-02-14T10:02:57;7.20;;;4.93;;
33858;SDS011;20156;47.486;12.074;2024-02-14T10:05:22;7.83;;;5.43;;
33858;SDS011;20156;47.486;12.074;2024-02-14T10:07:48;5.77;;;5.00;;
33858;SDS011;20156;47.486;12.074;2024-02-14T10:10:13;10.77;;;7.13;;
33858;SDS011;20156;47.486;12.074;2024-02-14T10:12:39;10.03;;;6.70;;
33858;SDS011;20156;47.486;12.074;2024-02-14T10:15:06;11.43;;;6.17;;
33858;SDS011;20156;47.486;12.074;2024-02-14T10:17:35;7.53;;;5.50;;
33858;SDS011;20156;47.486;12.074;2024-02-14T10:20:01;14.07;;;6.80;;
33858;SDS011;20156;47.486;12.074;2024-02-14T10:22:36;10.47;;;6.50;;
33858;SDS011;20156;47.486;12.074;2024-02-14T10:25:02;11.97;;;6.40;;
33858;SDS011;20156;47.486;12.074;2024-02-14T10:27:29;8.67;;;6.77;;
33858;SDS011;20156;47.486;12.074;2024-02-14T10:29:56;11.70;;;6.87;;
33858;SDS011;20156;47.486;12.074;2024-02-14T10:32:22;10.87;;;6.83;;
33858;SDS011;20156;47.486;12.074;2024-02-14T10:34:49;8.90;;;6.93;;
33858;SDS011;20156;47.486;12.074;2024-02-14T10:37:14;11.63;;;6.63;;
33858;SDS011;20156;47.486;12.074;2024-02-14T10:39:41;10.13;;;6.50;;
33858;SDS011;20156;47.486;12.074;2024-02-14T10:42:07;10.03;;;6.50;;
33858;SDS011;20156;47.486;12.074;2024-02-14T10:44:32;9.93;;;6.23;;
33858;SDS011;20156;47.486;12.074;2024-02-14T10:46:58;13.83;;;7.63;;
33858;SDS011;20156;47.486;12.074;2024-02-14T10:49:24;10.87;;;6.20;;
33858;SDS011;20156;47.486;12.074;2024-02-14T10:51:50;11.77;;;6.83;;
33858;SDS011;20156;47.486;12.074;2024-02-14T10:54:18;10.33;;;6.50;;
33858;SDS011;20156;47.486;12.074;2024-02-14T10:56:45;10.70;;;6.40;;
33858;SDS011;20156;47.486;12.074;2024-02-14T10:59:15;8.03;;;5.37;;
33858;SDS011;20156;47.486;12.074;2024-02-14T11:01:41;9.20;;;5.93;;
33858;SDS011;20156;47.486;12.074;2024-02-14T11:04:07;7.77;;;5.50;;
33858;SDS011;20156;47.486;12.074;2024-02-14T11:06:43;6.83;;;5.47;;
33858;SDS011;20156;47.486;12.074;2024-02-14T11:09:11;7.17;;;4.80;;
33858;SDS011;20156;47.486;12.074;2024-02-14T11:11:37;8.03;;;5.53;;
33858;SDS011;20156;47.486;12.074;2024-02-14T11:14:03;10.93;;;5.90;;
33858;SDS011;20156;47.486;12.074;2024-02-14T11:16:30;7.90;;;6.13;;
33858;SDS011;20156;47.486;12.074;2024-02-14T11:19:10;12.50;;;10.07;;
33858;SDS011;20156;47.486;12.074;2024-02-14T11:21:42;17.87;;;10.57;;
33858;SDS011;20156;47.486;12.074;2024-02-14T11:24:09;13.43;;;9.73;;
33858;SDS011;20156;47.486;12.074;2024-02-14T11:26:38;10.47;;;6.73;;
33858;SDS011;20156;47.486;12.074;2024-02-14T11:29:04;10.60;;;9.47;;
33858;SDS011;20156;47.486;12.074;2024-02-14T11:31:33;9.10;;;6.57;;
33858;SDS011;20156;47.486;12.074;2024-02-14T11:34:02;6.97;;;5.43;;
33858;SDS011;20156;47.486;12.074;2024-02-14T11:36:28;7.78;;;5.53;;
33858;SDS011;20156;47.486;12.074;2024-02-14T11:38:54;7.97;;;5.75;;
33858;SDS011;20156;47.486;12.074;2024-02-14T11:41:20;7.10;;;5.43;;
33858;SDS011;20156;47.486;12.074;2024-02-14T11:43:51;8.75;;;5.30;;
33858;SDS011;20156;47.486;12.074;2024-02-14T11:46:17;9.45;;;5.22;;
33858;SDS011;20156;47.486;12.074;2024-02-14T11:48:43;7.50;;;4.22;;
33858;SDS011;20156;47.486;12.074;2024-02-14T11:51:10;4.13;;;3.70;;
33858;SDS011;20156;47.486;12.074;2024-02-14T11:53:36;6.18;;;4.00;;
33858;SDS011;20156;47.486;12.074;2024-02-14T11:56:01;13.48;;;5.13;;
33858;SDS011;20156;47.486;12.074;2024-02-14T11:58:27;6.68;;;4.70;;
33858;SDS011;20156;47.486;12.074;2024-02-14T12:00:52;7.20;;;4.13;;
33858;SDS011;20156;47.486;12.074;2024-02-14T12:03:19;5.25;;;4.30;;
33858;SDS011;20156;47.486;12.074;2024-02-14T12:05:45;5.80;;;4.18;;
33858;SDS011;20156;47.486;12.074;2024-02-14T12:08:12;5.25;;;3.13;;
33858;SDS011;20156;47.486;12.074;2024-02-14T12:10:37;3.28;;;2.97;;
33858;SDS011;20156;47.486;12.074;2024-02-14T12:13:06;3.97;;;2.47;;
33858;SDS011;20156;47.486;12.074;2024-02-14T12:15:36;3.13;;;1.80;;
33858;SDS011;20156;47.486;12.074;2024-02-14T12:18:02;1.73;;;1.60;;
33858;SDS011;20156;47.486;12.074;2024-02-14T12:20:27;4.30;;;2.47;;
33858;SDS011;20156;47.486;12.074;2024-02-14T12:22:52;4.38;;;2.53;;
33858;SDS011;20156;47.486;12.074;2024-02-14T12:25:18;4.68;;;2.08;;
33858;SDS011;20156;47.486;12.074;2024-02-14T12:27:49;3.42;;;2.42;;
33858;SDS011;20156;47.486;12.074;2024-02-14T12:30:15;7.40;;;3.00;;
33858;SDS011;20156;47.486;12.074;2024-02-14T12:32:40;3.40;;;2.70;;
33858;SDS011;20156;47.486;12.074;2024-02-14T12:35:06;3.72;;;2.70;;
33858;SDS011;20156;47.486;12.074;2024-02-14T12:37:32;2.42;;;2.00;;
33858;SDS011;20156;47.486;12.074;2024-02-14T12:39:57;3.17;;;2.05;;
33858;SDS011;20156;47.486;12.074;2024-02-14T12:42:22;3.47;;;1.92;;
33858;SDS011;20156;47.486;12.074;2024-02-14T12:44:51;3.25;;;1.98;;
33858;SDS011;20156;47.486;12.074;2024-02-14T12:47:17;2.78;;;1.85;;
33858;SDS011;20156;47.486;12.074;2024-02-14T12:49:43;3.35;;;1.92;;
33858;SDS011;20156;47.486;12.074;2024-02-14T12:52:08;2.10;;;1.90;;
33858;SDS011;20156;47.486;12.074;2024-02-14T12:54:33;2.22;;;1.70;;
33858;SDS011;20156;47.486;12.074;2024-02-14T12:56:59;2.95;;;2.13;;
33858;SDS011;20156;47.486;12.074;2024-02-14T12:59:24;2.40;;;2.03;;
33858;SDS011;20156;47.486;12.074;2024-02-14T13:01:49;2.40;;;1.65;;
33858;SDS011;20156;47.486;12.074;2024-02-14T13:04:14;1.80;;;1.50;;
33858;SDS011;20156;47.486;12.074;2024-02-14T13:06:41;2.20;;;1.60;;
33858;SDS011;20156;47.486;12.074;2024-02-14T13:09:06;3.08;;;1.70;;
33858;SDS011;20156;47.486;12.074;2024-02-14T13:11:33;1.85;;;1.58;;
33858;SDS011;20156;47.486;12.074;2024-02-14T13:13:58;3.42;;;1.70;;
33858;SDS011;20156;47.486;12.074;2024-02-14T13:16:23;2.28;;;1.80;;
33858;SDS011;20156;47.486;12.074;2024-02-14T13:18:49;2.10;;;1.88;;
33858;SDS011;20156;47.486;12.074;2024-02-14T13:21:14;4.10;;;1.55;;
33858;SDS011;20156;47.486;12.074;2024-02-14T13:23:40;2.67;;;1.85;;
33858;SDS011;20156;47.486;12.074;2024-02-14T13:26:05;3.22;;;1.35;;
33858;SDS011;20156;47.486;12.074;2024-02-14T13:28:32;3.47;;;1.92;;
33858;SDS011;20156;47.486;12.074;2024-02-14T13:30:57;3.50;;;1.90;;
33858;SDS011;20156;47.486;12.074;2024-02-14T13:33:23;2.45;;;1.58;;
33858;SDS011;20156;47.486;12.074;2024-02-14T13:35:48;4.70;;;2.42;;
33858;SDS011;20156;47.486;12.074;2024-02-14T13:38:13;2.95;;;1.90;;
33858;SDS011;20156;47.486;12.074;2024-02-14T13:40:38;5.43;;;2.10;;
33858;SDS011;20156;47.486;12.074;2024-02-14T13:43:04;2.22;;;1.60;;
33858;SDS011;20156;47.486;12.074;2024-02-14T13:45:39;2.63;;;1.88;;
33858;SDS011;20156;47.486;12.074;2024-02-14T13:48:05;2.42;;;1.95;;
33858;SDS011;20156;47.486;12.074;2024-02-14T13:50:30;3.97;;;2.40;;
33858;SDS011;20156;47.486;12.074;2024-02-14T13:52:55;4.57;;;2.25;;
33858;SDS011;20156;47.486;12.074;2024-02-14T13:55:20;3.08;;;2.10;;
33858;SDS011;20156;47.486;12.074;2024-02-14T13:57:46;2.65;;;1.98;;
33858;SDS011;20156;47.486;12.074;2024-02-14T14:00:11;4.70;;;2.30;;
33858;SDS011;20156;47.486;12.074;2024-02-14T14:02:37;3.47;;;2.13;;
33858;SDS011;20156;47.486;12.074;2024-02-14T14:05:06;3.97;;;2.20;;
33858;SDS011;20156;47.486;12.074;2024-02-14T14:07:33;2.58;;;2.17;;
33858;SDS011;20156;47.486;12.074;2024-02-14T14:10:01;3.45;;;2.63;;
33858;SDS011;20156;47.486;12.074;2024-02-14T14:12:26;7.53;;;2.58;;
33858;SDS011;20156;47.486;12.074;2024-02-14T14:14:51;3.80;;;2.58;;
33858;SDS011;20156;47.486;12.074;2024-02-14T14:17:17;4.68;;;2.70;;
33858;SDS011;20156;47.486;12.074;2024-02-14T14:19:42;3.10;;;2.28;;
33858;SDS011;20156;47.486;12.074;2024-02-14T14:22:07;5.43;;;2.92;;
33858;SDS011;20156;47.486;12.074;2024-02-14T14:24:34;5.47;;;2.70;;
33858;SDS011;20156;47.486;12.074;2024-02-14T14:26:59;6.18;;;2.60;;